Aeroporto :
LOGIN :

Iscrizione | Disclaimer

   EN    FR    IT 

 










Sommario :    VFR   VFR Marginale   IFR   IFR Intensivo   IFR Molto Intensivo
Visibilità : 
Base nubi : 
>= 8 km
>= 3000ft
5 / 8 km
1000 / 3000 ft
1500m / 5 km
500 / 1000 ft
800 / 1500m
200 / 500 ft
< 800m
< 200 ft
Simboli :   Temporali  Nebbia  Neve Forte  Precipitazioni Forti  Vento > 20 kt
SIGMETs :   Varie  Temporali  Ghiacco  Turbolenza  Onda orograficha  Ceneri Vulcaniche






- Altitudine del aeroporto : 1187 ft


LIBV - Gioia del Colle Bari

ULTIMO METAR :
  • 151355Z 18010KT CAVOK 13/04 Q1017

METARs OBSOLETI :
  • 151255Z 18013KT CAVOK 14/04 Q1017 RMK BKN BKN200 VIS MIN 9999 WIND THR32 18011KT WIND THR14 18010KT BLU
  • 151155Z 19010KT CAVOK 14/04 Q1017 RMK BKN BKN200 VIS MIN 9999 WIND THR32 17010KT WIND THR14 19008KT BLU

TAF TAF LIBV
Valido dal 15 a 15 ore il 16 a 00 ore UTC


151400Z 1515/1524 18008KT 9999 FEW030
TEMPO 1518/1521 5000 BR SCT020



MetMap, La meteo Aeronautica in un colpo d'occhio ! - Copyright ORBIFLY Dicembre 2007 - Disclaimer

ORBIFLY MET'MAP TEAM :

Programmazione e sviluppo : Alexandra Zaïnal
Concezione : Baudouin d'Aumeries
Aiuto per la programmazione : Marc-Olivier Méhu
Supporto tecnico e logistico : Manuel Goepfert
Aiuto per la traduzione : Arnaldo La Scala

Contatto : metmap@orbifly.com




FONTI E CREDITI :

   NOAA